createdAt,value
2019-03-23T00:00:22.216Z,13.63
2019-03-23T00:02:54.257Z,14.93
2019-03-23T00:05:25.835Z,13.77
2019-03-23T00:07:57.773Z,14.27
2019-03-23T00:10:29.240Z,15.47
2019-03-23T00:13:00.688Z,15.73
2019-03-23T00:15:32.484Z,14.73
2019-03-23T00:18:04.498Z,14.77
2019-03-23T00:20:36.255Z,15.57
2019-03-23T00:23:07.495Z,16.23
2019-03-23T00:25:39.157Z,17.40
2019-03-23T00:28:10.042Z,16.67
2019-03-23T00:30:41.458Z,15.57
2019-03-23T00:33:12.319Z,14.83
2019-03-23T00:35:45.610Z,16.07
2019-03-23T00:38:16.519Z,15.17
2019-03-23T00:40:48.570Z,15.60
2019-03-23T00:43:19.625Z,15.47
2019-03-23T00:45:50.714Z,15.53
2019-03-23T00:48:21.661Z,16.00
2019-03-23T00:50:52.830Z,15.20
2019-03-23T00:53:24.197Z,15.63
2019-03-23T00:55:55.230Z,14.73
2019-03-23T00:58:26.489Z,16.47
2019-03-23T01:00:57.486Z,16.97
2019-03-23T01:03:28.507Z,15.97
2019-03-23T01:05:59.469Z,15.87
2019-03-23T01:08:30.763Z,17.03
2019-03-23T01:11:01.845Z,17.00
2019-03-23T01:13:33.066Z,16.33
2019-03-23T01:16:04.811Z,15.70
2019-03-23T01:18:36.863Z,14.87
2019-03-23T01:21:08.504Z,17.57
2019-03-23T01:23:40.682Z,15.83
2019-03-23T01:26:12.793Z,15.87
2019-03-23T01:28:44.514Z,17.60
2019-03-23T01:31:15.998Z,17.17
2019-03-23T01:33:47.412Z,19.13
2019-03-23T01:36:18.861Z,17.47
2019-03-23T01:38:50.322Z,18.43
2019-03-23T01:41:22.074Z,18.80
2019-03-23T01:43:53.806Z,17.00
2019-03-23T01:46:25.276Z,17.60
2019-03-23T01:48:56.730Z,17.77
2019-03-23T01:51:27.627Z,16.43
2019-03-23T01:53:59.325Z,17.83
2019-03-23T01:56:30.010Z,16.37
2019-03-23T01:59:01.305Z,18.10
2019-03-23T02:01:32.193Z,16.57
2019-03-23T02:04:03.287Z,18.47
2019-03-23T02:06:34.886Z,17.20
2019-03-23T02:09:08.174Z,19.03
2019-03-23T02:11:39.209Z,17.00
2019-03-23T02:14:10.318Z,17.10
2019-03-23T02:16:41.723Z,18.53
2019-03-23T02:19:13.221Z,17.43
2019-03-23T02:21:44.826Z,18.17
2019-03-23T02:24:16.117Z,18.03
2019-03-23T02:26:46.975Z,18.13
2019-03-23T02:29:18.378Z,17.90
2019-03-23T02:31:49.299Z,19.13
2019-03-23T02:34:20.698Z,18.60
2019-03-23T02:36:51.597Z,20.57
2019-03-23T02:39:23.029Z,19.17
2019-03-23T02:41:53.846Z,17.17
2019-03-23T02:44:25.581Z,18.23
2019-03-23T02:46:57.343Z,19.33
2019-03-23T02:49:29.402Z,16.67
2019-03-23T02:52:01.466Z,18.03
2019-03-23T02:54:34.147Z,18.70
2019-03-23T02:57:06.212Z,18.23
2019-03-23T02:59:37.667Z,19.07
2019-03-23T03:02:09.477Z,19.03
2019-03-23T03:04:41.790Z,20.03
2019-03-23T03:07:13.853Z,17.60
2019-03-23T03:09:45.614Z,20.20
2019-03-23T03:12:17.131Z,18.83
2019-03-23T03:14:48.429Z,18.10
2019-03-23T03:17:20.273Z,18.43
2019-03-23T03:19:51.731Z,18.33
2019-03-23T03:22:23.809Z,16.77
2019-03-23T03:24:55.857Z,18.90
2019-03-23T03:27:27.349Z,18.83
2019-03-23T03:29:59.067Z,18.67
2019-03-23T03:32:30.868Z,18.63
2019-03-23T03:35:02.600Z,17.77
2019-03-23T03:37:34.647Z,17.33
2019-03-23T03:40:07.575Z,19.03
2019-03-23T03:42:38.943Z,19.60
2019-03-23T03:45:12.384Z,19.43
2019-03-23T03:47:44.442Z,18.03
2019-03-23T03:50:16.202Z,17.73
2019-03-23T03:52:47.765Z,18.00
2019-03-23T03:55:19.109Z,18.10
2019-03-23T03:57:50.552Z,19.23
2019-03-23T04:00:21.522Z,17.67
2019-03-23T04:02:52.840Z,17.07
2019-03-23T04:05:23.706Z,19.90
2019-03-23T04:07:55.127Z,18.43
2019-03-23T04:10:26.061Z,18.90
2019-03-23T04:12:57.419Z,17.67
2019-03-23T04:15:28.389Z,18.37
2019-03-23T04:17:59.706Z,18.70
2019-03-23T04:20:31.325Z,18.87
2019-03-23T04:23:02.930Z,19.13
2019-03-23T04:25:34.984Z,18.63
2019-03-23T04:28:06.429Z,17.70
2019-03-23T04:30:38.526Z,17.17
2019-03-23T04:33:10.559Z,18.80
2019-03-23T04:35:42.318Z,19.70
2019-03-23T04:38:22.674Z,18.47
2019-03-23T04:40:47.626Z,19.37
2019-03-23T04:43:19.198Z,16.63
2019-03-23T04:45:50.893Z,19.23
2019-03-23T04:48:22.672Z,17.50
2019-03-23T04:50:54.406Z,18.40
2019-03-23T04:53:26.182Z,16.87
2019-03-23T04:55:57.309Z,18.83
2019-03-23T04:58:28.754Z,18.77
2019-03-23T05:01:00.510Z,17.67
2019-03-23T05:03:32.886Z,19.53
2019-03-23T05:06:04.642Z,17.37
2019-03-23T05:08:36.397Z,17.93
2019-03-23T05:11:08.159Z,17.40
2019-03-23T05:13:39.909Z,17.80
2019-03-23T05:16:11.979Z,16.13
2019-03-23T05:18:43.126Z,18.50
2019-03-23T05:21:14.817Z,18.40
2019-03-23T05:23:46.270Z,18.83
2019-03-23T05:26:18.405Z,17.47
2019-03-23T05:28:49.925Z,17.20
2019-03-23T05:31:21.297Z,18.67
2019-03-23T05:33:54.039Z,17.80
2019-03-23T05:36:25.737Z,18.77
2019-03-23T05:38:57.494Z,17.30
2019-03-23T05:41:30.947Z,15.97
2019-03-23T05:44:03.399Z,16.73
2019-03-23T05:46:35.243Z,18.03
2019-03-23T05:49:08.525Z,18.57
2019-03-23T05:51:39.973Z,17.57
2019-03-23T05:54:11.447Z,17.23
2019-03-23T05:56:43.488Z,17.80
2019-03-23T05:59:15.251Z,16.23
2019-03-23T06:01:46.698Z,18.00
2019-03-23T06:04:18.453Z,17.17
2019-03-23T06:06:50.521Z,15.43
2019-03-23T06:09:22.594Z,18.27
2019-03-23T06:11:54.341Z,17.40
2019-03-23T06:14:26.414Z,17.60
2019-03-23T06:16:57.874Z,16.87
2019-03-23T06:19:29.822Z,18.83
2019-03-23T06:22:01.376Z,17.63
2019-03-23T06:24:33.445Z,15.90
2019-03-23T06:27:05.505Z,16.53
2019-03-23T06:29:37.213Z,17.10
2019-03-23T06:32:08.731Z,17.20
2019-03-23T06:34:40.310Z,15.73
2019-03-23T06:37:12.046Z,16.73
2019-03-23T06:39:43.681Z,16.50
2019-03-23T06:42:14.833Z,15.47
2019-03-23T06:44:46.582Z,15.57
2019-03-23T06:47:18.645Z,16.93
2019-03-23T06:49:50.542Z,15.33
2019-03-23T06:52:23.394Z,15.90
2019-03-23T06:54:55.198Z,15.40
2019-03-23T06:57:26.926Z,17.37
2019-03-23T06:59:58.979Z,13.70
2019-03-23T07:02:30.736Z,16.73
2019-03-23T07:05:01.888Z,14.60
2019-03-23T07:07:33.333Z,14.37
2019-03-23T07:10:05.421Z,17.20
2019-03-23T07:12:37.159Z,15.10
2019-03-23T07:15:19.409Z,15.57
2019-03-23T07:17:42.817Z,15.97
2019-03-23T07:20:14.882Z,15.50
2019-03-23T07:22:47.462Z,17.00
2019-03-23T07:25:19.034Z,13.60
2019-03-23T07:27:50.777Z,14.53
2019-03-23T07:30:22.568Z,13.23
2019-03-23T07:32:54.593Z,12.63
2019-03-23T07:35:26.354Z,15.13
2019-03-23T07:37:58.127Z,14.60
2019-03-23T07:40:29.781Z,12.57
2019-03-23T07:43:01.941Z,13.90
2019-03-23T07:45:32.821Z,15.73
2019-03-23T07:48:03.914Z,17.13
2019-03-23T07:50:34.782Z,17.50
2019-03-23T07:53:05.987Z,14.83
2019-03-23T07:55:36.745Z,15.17
2019-03-23T07:58:08.197Z,15.77
2019-03-23T08:00:43.645Z,14.60
2019-03-23T08:03:15.689Z,19.70
2019-03-23T08:05:46.545Z,18.40
2019-03-23T08:08:17.918Z,16.67
2019-03-23T08:10:48.822Z,16.57
2019-03-23T08:13:19.969Z,18.43
2019-03-23T08:15:51.085Z,16.17
2019-03-23T08:18:22.230Z,15.00
2019-03-23T08:20:53.694Z,19.77
2019-03-23T08:23:25.777Z,16.33
2019-03-23T08:25:56.944Z,17.73
2019-03-23T08:28:28.359Z,16.23
2019-03-23T08:30:59.201Z,17.53
2019-03-23T08:33:30.681Z,13.40
2019-03-23T08:36:01.570Z,15.97
2019-03-23T08:38:32.624Z,13.80
2019-03-23T08:41:03.482Z,14.67
2019-03-23T08:43:34.915Z,13.57
2019-03-23T08:46:05.762Z,14.83
2019-03-23T08:48:36.896Z,14.40
2019-03-23T08:51:07.773Z,15.17
2019-03-23T08:53:39.229Z,13.30
2019-03-23T08:56:10.147Z,15.27
2019-03-23T08:58:39.622Z,15.20
2019-03-23T09:01:10.410Z,13.97
2019-03-23T09:03:51.786Z,14.40
2019-03-23T09:06:14.297Z,13.30
2019-03-23T09:08:45.651Z,12.67
2019-03-23T09:11:20.619Z,14.70
2019-03-23T09:13:49.558Z,12.40
2019-03-23T09:16:20.409Z,14.13
2019-03-23T09:18:51.845Z,13.87
2019-03-23T09:21:23.174Z,17.43
2019-03-23T09:23:54.742Z,14.77
2019-03-23T09:26:26.826Z,13.90
2019-03-23T09:28:58.883Z,13.60
2019-03-23T09:31:30.641Z,13.43
2019-03-23T09:34:02.758Z,11.60
2019-03-23T09:36:34.150Z,11.13
2019-03-23T09:39:06.835Z,11.80
2019-03-23T09:41:38.467Z,13.00
2019-03-23T09:44:10.347Z,12.10
2019-03-23T09:46:41.799Z,11.07
2019-03-23T09:49:14.633Z,13.67
2019-03-23T09:51:46.722Z,10.57
2019-03-23T09:54:18.298Z,10.40
2019-03-23T09:56:49.478Z,9.97
2019-03-23T09:59:20.603Z,10.53
2019-03-23T10:01:51.447Z,12.87
2019-03-23T10:04:23.182Z,12.27
2019-03-23T10:06:54.018Z,9.87
2019-03-23T10:09:25.475Z,10.60
2019-03-23T10:11:56.332Z,10.43
2019-03-23T10:14:28.073Z,9.97
2019-03-23T10:16:59.277Z,10.17
2019-03-23T10:19:30.660Z,12.17
2019-03-23T10:22:02.117Z,11.07
2019-03-23T10:24:33.566Z,11.67
2019-03-23T10:27:05.318Z,10.23
2019-03-23T10:29:37.105Z,10.53
2019-03-23T10:32:08.833Z,11.00
2019-03-23T10:34:40.306Z,10.10
2019-03-23T10:37:11.738Z,11.93
2019-03-23T10:39:43.178Z,11.60
2019-03-23T10:42:16.283Z,11.23
2019-03-23T10:44:47.621Z,12.10
2019-03-23T10:47:19.418Z,10.73
2019-03-23T10:49:52.366Z,12.13
2019-03-23T10:52:23.815Z,13.37
2019-03-23T10:54:55.273Z,12.03
2019-03-23T10:57:27.030Z,11.43
2019-03-23T10:59:58.790Z,14.50
2019-03-23T11:02:30.544Z,12.53
2019-03-23T11:05:01.923Z,14.33
2019-03-23T11:07:33.302Z,15.70
2019-03-23T11:10:05.440Z,15.93
2019-03-23T11:12:37.181Z,16.37
2019-03-23T11:15:09.950Z,12.73
2019-03-23T11:17:41.704Z,14.07
2019-03-23T11:20:13.093Z,14.23
2019-03-23T11:22:44.638Z,13.97
2019-03-23T11:25:16.222Z,14.87
2019-03-23T11:27:48.130Z,13.20
2019-03-23T11:30:19.898Z,15.10
2019-03-23T11:32:51.333Z,17.03
2019-03-23T11:35:23.131Z,12.63
2019-03-23T11:37:55.293Z,14.43
2019-03-23T11:40:27.224Z,13.23
2019-03-23T11:42:58.762Z,14.40
2019-03-23T11:45:30.670Z,14.40
2019-03-23T11:48:02.190Z,14.83
2019-03-23T11:50:33.953Z,13.37
2019-03-23T11:53:06.020Z,13.17
2019-03-23T11:55:37.773Z,13.27
2019-03-23T11:58:09.226Z,13.10
2019-03-23T12:00:40.921Z,13.30
2019-03-23T12:03:12.432Z,13.10
2019-03-23T12:05:44.088Z,13.53
2019-03-23T12:08:15.574Z,15.67
2019-03-23T12:10:47.090Z,14.73
2019-03-23T12:13:18.851Z,13.13
2019-03-23T12:15:50.615Z,14.67
2019-03-23T12:18:22.109Z,13.83
2019-03-23T12:20:53.813Z,16.87
2019-03-23T12:23:25.265Z,13.97
2019-03-23T12:25:57.023Z,14.97
2019-03-23T12:28:28.197Z,16.40
2019-03-23T12:30:59.636Z,14.57
2019-03-23T12:33:30.471Z,13.13
2019-03-23T12:36:01.912Z,14.37
2019-03-23T12:38:32.761Z,15.30
2019-03-23T12:41:14.140Z,12.97
2019-03-23T12:43:36.892Z,13.23
2019-03-23T12:46:08.337Z,14.33
2019-03-23T12:48:39.267Z,12.90
2019-03-23T12:51:10.302Z,12.50
2019-03-23T12:53:41.178Z,11.67
2019-03-23T12:56:12.269Z,13.10
2019-03-23T12:58:43.094Z,11.43
2019-03-23T13:01:14.260Z,14.60
2019-03-23T13:03:45.031Z,12.20
2019-03-23T13:06:16.242Z,13.07
2019-03-23T13:08:47.072Z,12.57
2019-03-23T13:11:23.279Z,12.20
2019-03-23T13:13:51.533Z,13.67
2019-03-23T13:16:22.983Z,12.03
2019-03-23T13:18:53.858Z,11.83
2019-03-23T13:21:24.949Z,15.83
2019-03-23T13:23:56.710Z,12.77
2019-03-23T13:26:29.147Z,11.47
2019-03-23T13:29:01.011Z,13.20
2019-03-23T13:31:32.881Z,11.97
2019-03-23T13:34:03.869Z,11.40
2019-03-23T13:36:35.191Z,12.53
2019-03-23T13:39:07.381Z,14.53
2019-03-23T13:41:47.823Z,12.43
2019-03-23T13:44:18.813Z,13.13
2019-03-23T13:46:49.906Z,11.23
2019-03-23T13:49:20.850Z,10.60
2019-03-23T13:51:52.115Z,12.17
2019-03-23T13:54:23.340Z,11.40
2019-03-23T13:56:54.479Z,12.00
2019-03-23T13:59:25.301Z,10.17
2019-03-23T14:01:56.456Z,12.53
2019-03-23T14:04:27.311Z,12.37
2019-03-23T14:06:58.437Z,11.70
2019-03-23T14:09:29.370Z,12.13
2019-03-23T14:12:01.051Z,11.47
2019-03-23T14:14:31.985Z,11.90
2019-03-23T14:17:03.405Z,10.13
2019-03-23T14:19:34.463Z,12.43
2019-03-23T14:22:05.918Z,10.73
2019-03-23T14:24:37.362Z,9.47
2019-03-23T14:27:08.819Z,12.73
2019-03-23T14:29:40.583Z,10.87
2019-03-23T14:32:12.325Z,11.23
2019-03-23T14:34:44.050Z,9.80
2019-03-23T14:37:15.635Z,11.93
2019-03-23T14:39:47.085Z,11.73
2019-03-23T14:42:18.906Z,11.80
2019-03-23T14:44:52.506Z,10.40
2019-03-23T14:47:24.148Z,12.10
2019-03-23T14:49:56.121Z,9.13
2019-03-23T14:52:27.976Z,10.47
2019-03-23T14:54:59.382Z,9.73
2019-03-23T14:57:31.652Z,10.93
2019-03-23T15:00:03.039Z,10.83
2019-03-23T15:02:34.657Z,11.13
2019-03-23T15:05:06.397Z,10.67
2019-03-23T15:07:38.169Z,10.40
2019-03-23T15:10:10.335Z,11.77
2019-03-23T15:12:42.001Z,12.00
2019-03-23T15:15:13.552Z,11.27
2019-03-23T15:17:49.089Z,9.97
2019-03-23T15:20:18.215Z,12.30
2019-03-23T15:22:49.645Z,10.30
2019-03-23T15:25:21.200Z,9.03
2019-03-23T15:27:52.545Z,10.77
2019-03-23T15:30:24.598Z,10.73
2019-03-23T15:32:56.296Z,11.13
2019-03-23T15:35:28.127Z,11.93
2019-03-23T15:38:00.194Z,9.93
2019-03-23T15:40:31.643Z,10.30
2019-03-23T15:43:03.039Z,10.57
2019-03-23T15:45:34.546Z,9.67
2019-03-23T15:48:06.358Z,9.03
2019-03-23T15:50:37.598Z,11.20
2019-03-23T15:53:09.815Z,9.47
2019-03-23T15:55:41.302Z,10.03
2019-03-23T15:58:13.022Z,9.37
2019-03-23T16:00:44.644Z,10.80
2019-03-23T16:03:16.237Z,12.40
2019-03-23T16:05:49.842Z,9.07
2019-03-23T16:08:21.286Z,9.40
2019-03-23T16:10:52.748Z,10.67
2019-03-23T16:13:24.194Z,10.40
2019-03-23T16:15:55.871Z,11.67
2019-03-23T16:18:27.702Z,11.30
2019-03-23T16:20:59.462Z,9.23
2019-03-23T16:23:31.566Z,9.23
2019-03-23T16:26:03.283Z,9.70
2019-03-23T16:28:35.152Z,9.33
2019-03-23T16:31:06.800Z,11.33
2019-03-23T16:33:38.578Z,11.77
2019-03-23T16:36:10.136Z,10.40
2019-03-23T16:38:42.092Z,9.47
2019-03-23T16:41:13.244Z,9.83
2019-03-23T16:43:45.005Z,14.30
2019-03-23T16:46:16.433Z,9.67
2019-03-23T16:48:47.411Z,10.33
2019-03-23T16:51:18.730Z,11.00
2019-03-23T16:53:49.575Z,11.97
2019-03-23T16:56:20.730Z,14.53
2019-03-23T16:58:51.639Z,12.83
2019-03-23T17:01:22.985Z,14.30
2019-03-23T17:03:53.839Z,11.67
2019-03-23T17:06:25.210Z,12.97
2019-03-23T17:08:56.089Z,11.87
2019-03-23T17:11:27.254Z,10.00
2019-03-23T17:14:03.505Z,12.90
2019-03-23T17:16:34.765Z,13.20
2019-03-23T17:19:05.615Z,14.27
2019-03-23T17:21:36.813Z,12.53
2019-03-23T17:24:07.562Z,11.10
2019-03-23T17:26:38.731Z,11.37
2019-03-23T17:29:11.710Z,15.90
2019-03-23T17:31:43.466Z,11.33
2019-03-23T17:34:15.536Z,11.93
2019-03-23T17:36:47.295Z,10.60
2019-03-23T17:39:18.679Z,13.80
2019-03-23T17:41:50.206Z,13.93
2019-03-23T17:44:22.276Z,10.73
2019-03-23T17:46:54.022Z,12.27
2019-03-23T17:49:25.769Z,12.23
2019-03-23T17:51:57.544Z,12.83
2019-03-23T17:54:29.598Z,10.40
2019-03-23T17:57:01.966Z,10.67
2019-03-23T17:59:33.434Z,11.30
2019-03-23T18:02:05.172Z,9.83
2019-03-23T18:04:36.329Z,10.00
2019-03-23T18:07:08.402Z,9.83
2019-03-23T18:09:40.782Z,10.17
2019-03-23T18:12:12.538Z,12.67
2019-03-23T18:14:44.166Z,11.57
2019-03-23T18:17:16.044Z,12.27
2019-03-23T18:19:47.726Z,10.83
2019-03-23T18:22:19.266Z,11.30
2019-03-23T18:24:50.780Z,9.40
2019-03-23T18:27:22.451Z,12.60
2019-03-23T18:29:53.896Z,9.80
2019-03-23T18:32:25.658Z,9.90
2019-03-23T18:34:57.421Z,11.27
2019-03-23T18:37:29.487Z,12.63
2019-03-23T18:40:01.118Z,11.23
2019-03-23T18:42:32.995Z,10.43
2019-03-23T18:45:04.797Z,12.40
2019-03-23T18:47:36.294Z,11.00
2019-03-23T18:50:07.895Z,13.50
2019-03-23T18:52:39.413Z,11.40
2019-03-23T18:55:11.187Z,10.93
2019-03-23T18:57:42.940Z,10.83
2019-03-23T19:00:18.682Z,11.53
2019-03-23T19:02:50.449Z,10.00
2019-03-23T19:05:22.216Z,11.47
2019-03-23T19:07:53.666Z,11.23
2019-03-23T19:10:25.713Z,11.07
2019-03-23T19:12:57.480Z,12.90
2019-03-23T19:15:29.256Z,11.53
2019-03-23T19:18:00.686Z,11.17
2019-03-23T19:20:32.442Z,11.80
2019-03-23T19:23:06.365Z,13.27
2019-03-23T19:25:38.967Z,12.93
2019-03-23T19:28:10.725Z,13.00
2019-03-23T19:30:42.858Z,11.00
2019-03-23T19:33:14.172Z,13.30
2019-03-23T19:35:45.782Z,13.90
2019-03-23T19:38:18.643Z,12.10
2019-03-23T19:40:49.866Z,13.33
2019-03-23T19:43:20.871Z,13.37
2019-03-23T19:45:52.194Z,12.73
2019-03-23T19:48:23.023Z,14.60
2019-03-23T19:50:54.476Z,14.27
2019-03-23T19:53:26.918Z,14.30
2019-03-23T19:55:58.596Z,15.03
2019-03-23T19:58:29.524Z,13.90
2019-03-23T20:01:01.585Z,14.20
2019-03-23T20:03:32.538Z,18.37
2019-03-23T20:06:03.800Z,17.97
2019-03-23T20:08:34.679Z,16.73
2019-03-23T20:11:06.068Z,14.23
2019-03-23T20:13:36.967Z,16.07
2019-03-23T20:16:08.093Z,15.23
2019-03-23T20:18:39.409Z,20.80
2019-03-23T20:21:10.660Z,17.47
2019-03-23T20:23:41.621Z,17.60
2019-03-23T20:26:13.261Z,19.17
2019-03-23T20:28:45.302Z,18.03
2019-03-23T20:31:17.363Z,19.03
2019-03-23T20:33:49.122Z,17.03
2019-03-23T20:36:20.590Z,17.73
2019-03-23T20:38:52.367Z,20.13
2019-03-23T20:41:24.107Z,17.20
2019-03-23T20:43:56.710Z,19.40
2019-03-23T20:46:28.851Z,22.53
2019-03-23T20:49:01.977Z,19.83
2019-03-23T20:51:33.623Z,18.93
2019-03-23T20:54:05.352Z,19.60
2019-03-23T20:56:37.106Z,19.17
2019-03-23T20:59:08.571Z,23.13
2019-03-23T21:01:40.035Z,20.30
2019-03-23T21:04:12.063Z,21.43
2019-03-23T21:06:44.288Z,20.67
2019-03-23T21:09:15.900Z,20.73
2019-03-23T21:11:47.391Z,22.20
2019-03-23T21:14:20.421Z,21.37
2019-03-23T21:16:52.398Z,21.13
2019-03-23T21:19:23.886Z,19.27
2019-03-23T21:21:55.921Z,20.77
2019-03-23T21:24:26.823Z,20.27
2019-03-23T21:26:59.747Z,21.37
2019-03-23T21:29:31.521Z,23.03
2019-03-23T21:32:02.959Z,21.90
2019-03-23T21:34:34.419Z,22.27
2019-03-23T21:37:06.183Z,23.30
2019-03-23T21:39:37.886Z,23.73
2019-03-23T21:42:10.285Z,26.13
2019-03-23T21:44:41.913Z,21.57
2019-03-23T21:47:13.738Z,23.30
2019-03-23T21:49:45.860Z,26.27
2019-03-23T21:52:17.376Z,23.30
2019-03-23T21:54:48.775Z,22.63
2019-03-23T21:57:20.247Z,25.30
2019-03-23T21:59:51.667Z,23.03
2019-03-23T22:02:23.446Z,24.87
2019-03-23T22:04:55.489Z,26.67
2019-03-23T22:07:26.618Z,24.97
2019-03-23T22:09:57.795Z,24.47
2019-03-23T22:12:30.252Z,28.93
2019-03-23T22:15:01.854Z,25.50
2019-03-23T22:17:34.596Z,24.77
2019-03-23T22:20:08.523Z,24.67
2019-03-23T22:22:39.941Z,25.37
2019-03-23T22:25:11.958Z,27.53
2019-03-23T22:27:44.222Z,24.67
2019-03-23T22:30:15.832Z,25.47
2019-03-23T22:32:47.607Z,25.33
2019-03-23T22:35:19.735Z,24.83
2019-03-23T22:37:51.759Z,24.33
2019-03-23T22:40:22.926Z,25.87
2019-03-23T22:42:54.313Z,23.80
2019-03-23T22:45:26.058Z,23.00
2019-03-23T22:47:57.831Z,29.43
2019-03-23T22:50:29.595Z,24.40
2019-03-23T22:53:01.958Z,24.03
2019-03-23T22:55:33.415Z,23.60
2019-03-23T22:58:05.181Z,25.03
2019-03-23T23:00:42.694Z,24.27
2019-03-23T23:03:15.300Z,29.23
2019-03-23T23:05:47.201Z,23.13
2019-03-23T23:08:18.963Z,23.83
2019-03-23T23:10:50.606Z,24.57
2019-03-23T23:13:21.574Z,21.70
2019-03-23T23:15:53.001Z,23.10
2019-03-23T23:18:23.858Z,22.90
2019-03-23T23:20:54.982Z,21.97
2019-03-23T23:23:25.887Z,23.30
2019-03-23T23:25:57.270Z,21.80
2019-03-23T23:28:28.437Z,23.17
2019-03-23T23:31:00.296Z,20.80
2019-03-23T23:33:31.417Z,21.03
2019-03-23T23:36:02.773Z,20.10
2019-03-23T23:38:33.637Z,21.37
2019-03-23T23:41:05.356Z,21.33
2019-03-23T23:43:36.228Z,20.90
2019-03-23T23:46:07.655Z,23.50
2019-03-23T23:48:38.525Z,21.33
2019-03-23T23:51:09.618Z,19.87
2019-03-23T23:53:40.501Z,17.93
2019-03-23T23:56:11.606Z,20.07
2019-03-23T23:58:42.463Z,19.63
